sensor_id;sensor_type;location;lat;lon;timestamp;pressure;altitude;pressure_sealevel;temperature;humidity
69836;BME280;57132;51.972;4.450;2022-09-09T00:04:16;100656.94;;;14.61;100.00
69836;BME280;57132;51.972;4.450;2022-09-09T00:09:22;100648.72;;;14.63;100.00
69836;BME280;57132;51.972;4.450;2022-09-09T00:11:55;100653.09;;;14.64;100.00
69836;BME280;57132;51.972;4.450;2022-09-09T00:14:29;100642.63;;;14.61;100.00
69836;BME280;57132;51.972;4.450;2022-09-09T00:17:02;100644.78;;;14.57;100.00
69836;BME280;57132;51.972;4.450;2022-09-09T00:19:46;100644.78;;;14.57;100.00
69836;BME280;57132;51.972;4.450;2022-09-09T00:22:19;100642.09;;;14.57;100.00
69836;BME280;57132;51.972;4.450;2022-09-09T00:24:51;100641.50;;;14.54;100.00
69836;BME280;57132;51.972;4.450;2022-09-09T00:27:48;100644.47;;;14.50;100.00
69836;BME280;57132;51.972;4.450;2022-09-09T00:30:23;100645.47;;;14.49;100.00
69836;BME280;57132;51.972;4.450;2022-09-09T00:32:52;100644.47;;;14.50;100.00
69836;BME280;57132;51.972;4.450;2022-09-09T00:35:25;100635.66;;;14.48;100.00
69836;BME280;57132;51.972;4.450;2022-09-09T00:37:56;100635.97;;;14.45;100.00
69836;BME280;57132;51.972;4.450;2022-09-09T00:40:26;100636.22;;;14.42;100.00
69836;BME280;57132;51.972;4.450;2022-09-09T00:43:28;100633.97;;;14.38;100.00
69836;BME280;57132;51.972;4.450;2022-09-09T00:46:21;100639.34;;;14.38;100.00
69836;BME280;57132;51.972;4.450;2022-09-09T00:48:58;100628.72;;;14.36;100.00
69836;BME280;57132;51.972;4.450;2022-09-09T00:57:28;100622.38;;;14.37;100.00
69836;BME280;57132;51.972;4.450;2022-09-09T01:03:18;100625.75;;;14.39;100.00
69836;BME280;57132;51.972;4.450;2022-09-09T01:06:11;100617.84;;;14.38;100.00
69836;BME280;57132;51.972;4.450;2022-09-09T01:11:21;100613.91;;;14.42;100.00
69836;BME280;57132;51.972;4.450;2022-09-09T01:13:55;100610.06;;;14.44;100.00
69836;BME280;57132;51.972;4.450;2022-09-09T01:16:24;100606.88;;;14.50;100.00
69836;BME280;57132;51.972;4.450;2022-09-09T01:18:53;100612.66;;;14.56;100.00
69836;BME280;57132;51.972;4.450;2022-09-09T01:21:26;100610.69;;;14.58;100.00
69836;BME280;57132;51.972;4.450;2022-09-09T01:24:27;100600.53;;;14.61;100.00
69836;BME280;57132;51.972;4.450;2022-09-09T01:27:00;100598.53;;;14.63;100.00
69836;BME280;57132;51.972;4.450;2022-09-09T01:29:26;100607.44;;;14.64;100.00
69836;BME280;57132;51.972;4.450;2022-09-09T01:31:55;100607.72;;;14.61;100.00
69836;BME280;57132;51.972;4.450;2022-09-09T01:34:24;100607.16;;;14.57;100.00
69836;BME280;57132;51.972;4.450;2022-09-09T01:39:22;100589.91;;;14.60;100.00
69836;BME280;57132;51.972;4.450;2022-09-09T01:41:48;100586.94;;;14.63;100.00
69836;BME280;57132;51.972;4.450;2022-09-09T01:44:13;100581.72;;;14.61;100.00
69836;BME280;57132;51.972;4.450;2022-09-09T01:46:39;100589.91;;;14.60;100.00
69836;BME280;57132;51.972;4.450;2022-09-09T01:49:06;100591.06;;;14.57;100.00
69836;BME280;57132;51.972;4.450;2022-09-09T01:51:32;100591.31;;;14.54;100.00
69836;BME280;57132;51.972;4.450;2022-09-09T01:53:58;100586.78;;;14.55;100.00
69836;BME280;57132;51.972;4.450;2022-09-09T01:59:23;100583.94;;;14.46;100.00
69836;BME280;57132;51.972;4.450;2022-09-09T02:02:06;100584.22;;;14.43;100.00
69836;BME280;57132;51.972;4.450;2022-09-09T02:04:43;100575.16;;;14.44;100.00
69836;BME280;57132;51.972;4.450;2022-09-09T02:07:23;100583.50;;;14.41;100.00
69836;BME280;57132;51.972;4.450;2022-09-09T02:09:59;100578.53;;;14.37;100.00
69836;BME280;57132;51.972;4.450;2022-09-09T02:12:27;100581.22;;;14.37;100.00
69836;BME280;57132;51.972;4.450;2022-09-09T02:15:03;100572.59;;;14.33;100.00
69836;BME280;57132;51.972;4.450;2022-09-09T02:17:32;100577.97;;;14.33;100.00
69836;BME280;57132;51.972;4.450;2022-09-09T02:20:07;100583.06;;;14.36;100.00
69836;BME280;57132;51.972;4.450;2022-09-09T02:22:35;100567.69;;;14.38;100.00
69836;BME280;57132;51.972;4.450;2022-09-09T02:25:03;100563.31;;;14.37;100.00
69836;BME280;57132;51.972;4.450;2022-09-09T02:27:30;100559.63;;;14.38;100.00
69836;BME280;57132;51.972;4.450;2022-09-09T02:29:58;100549.88;;;14.37;100.00
69836;BME280;57132;51.972;4.450;2022-09-09T02:32:28;100547.47;;;14.34;100.00
69836;BME280;57132;51.972;4.450;2022-09-09T02:34:59;100545.47;;;14.36;100.00
69836;BME280;57132;51.972;4.450;2022-09-09T02:37:30;100555.09;;;14.39;100.00
69836;BME280;57132;51.972;4.450;2022-09-09T02:40:00;100548.88;;;14.38;100.00
69836;BME280;57132;51.972;4.450;2022-09-09T02:42:25;100552.25;;;14.40;100.00
69836;BME280;57132;51.972;4.450;2022-09-09T02:44:50;100548.44;;;14.43;100.00
69836;BME280;57132;51.972;4.450;2022-09-09T02:47:35;100551.13;;;14.43;100.00
69836;BME280;57132;51.972;4.450;2022-09-09T02:50:23;100550.84;;;14.36;100.00
69836;BME280;57132;51.972;4.450;2022-09-09T02:53:07;100554.69;;;14.34;100.00
69836;BME280;57132;51.972;4.450;2022-09-09T02:55:43;100552.13;;;14.32;100.00
69836;BME280;57132;51.972;4.450;2022-09-09T02:58:13;100552.00;;;14.34;100.00
69836;BME280;57132;51.972;4.450;2022-09-09T03:00:43;100548.16;;;14.36;100.00
69836;BME280;57132;51.972;4.450;2022-09-09T03:03:11;100547.47;;;14.34;100.00
69836;BME280;57132;51.972;4.450;2022-09-09T03:05:36;100548.16;;;14.36;100.00
69836;BME280;57132;51.972;4.450;2022-09-09T03:08:03;100533.63;;;14.39;100.00
69836;BME280;57132;51.972;4.450;2022-09-09T03:10:29;100552.41;;;14.39;100.00
69836;BME280;57132;51.972;4.450;2022-09-09T03:12:54;100540.66;;;14.40;100.00
69836;BME280;57132;51.972;4.450;2022-09-09T03:15:20;100526.53;;;14.47;100.00
69836;BME280;57132;51.972;4.450;2022-09-09T03:17:46;100532.19;;;14.44;100.00
69836;BME280;57132;51.972;4.450;2022-09-09T03:20:12;100530.34;;;14.45;100.00
69836;BME280;57132;51.972;4.450;2022-09-09T03:22:37;100534.47;;;14.49;100.00
69836;BME280;57132;51.972;4.450;2022-09-09T03:25:02;100526.28;;;14.50;100.00
69836;BME280;57132;51.972;4.450;2022-09-09T03:27:29;100528.97;;;14.50;100.00
69836;BME280;57132;51.972;4.450;2022-09-09T03:29:54;100522.34;;;14.55;100.00
69836;BME280;57132;51.972;4.450;2022-09-09T03:32:21;100523.59;;;14.60;100.00
69836;BME280;57132;51.972;4.450;2022-09-09T03:34:48;100527.28;;;14.59;100.00
69836;BME280;57132;51.972;4.450;2022-09-09T03:37:15;100530.97;;;14.58;100.00
69836;BME280;57132;51.972;4.450;2022-09-09T03:39:41;100530.69;;;14.61;100.00
69836;BME280;57132;51.972;4.450;2022-09-09T03:42:06;100525.31;;;14.61;100.00
69836;BME280;57132;51.972;4.450;2022-09-09T03:44:31;100528.69;;;14.63;100.00
69836;BME280;57132;51.972;4.450;2022-09-09T03:46:57;100520.63;;;14.63;100.00
69836;BME280;57132;51.972;4.450;2022-09-09T03:49:26;100530.09;;;14.67;100.00
69836;BME280;57132;51.972;4.450;2022-09-09T03:51:54;100519.63;;;14.64;100.00
69836;BME280;57132;51.972;4.450;2022-09-09T03:54:19;100523.88;;;14.67;100.00
69836;BME280;57132;51.972;4.450;2022-09-09T03:56:44;100515.53;;;14.70;100.00
69836;BME280;57132;51.972;4.450;2022-09-09T03:59:10;100525.44;;;14.69;100.00
69836;BME280;57132;51.972;4.450;2022-09-09T04:01:36;100512.13;;;14.68;100.00
69836;BME280;57132;51.972;4.450;2022-09-09T04:04:01;100513.13;;;14.67;100.00
69836;BME280;57132;51.972;4.450;2022-09-09T04:06:27;100510.59;;;14.65;100.00
69836;BME280;57132;51.972;4.450;2022-09-09T04:08:53;100514.41;;;14.63;100.00
69836;BME280;57132;51.972;4.450;2022-09-09T04:11:20;100512.16;;;14.58;100.00
69836;BME280;57132;51.972;4.450;2022-09-09T04:13:46;100505.63;;;14.61;100.00
69836;BME280;57132;51.972;4.450;2022-09-09T04:16:12;100505.38;;;14.54;100.00
69836;BME280;57132;51.972;4.450;2022-09-09T04:18:40;100506.22;;;14.55;100.00
69836;BME280;57132;51.972;4.450;2022-09-09T04:21:06;100500.44;;;14.49;100.00
69836;BME280;57132;51.972;4.450;2022-09-09T04:23:33;100506.75;;;14.48;100.00
69836;BME280;57132;51.972;4.450;2022-09-09T04:26:00;100485.84;;;14.42;100.00
69836;BME280;57132;51.972;4.450;2022-09-09T04:28:29;100498.28;;;14.43;100.00
69836;BME280;57132;51.972;4.450;2022-09-09T04:30:55;100494.19;;;14.39;100.00
69836;BME280;57132;51.972;4.450;2022-09-09T04:33:23;100487.25;;;14.37;100.00
69836;BME280;57132;51.972;4.450;2022-09-09T04:35:50;100487.13;;;14.38;100.00
69836;BME280;57132;51.972;4.450;2022-09-09T04:38:19;100481.31;;;14.33;100.00
69836;BME280;57132;51.972;4.450;2022-09-09T04:40:47;100474.53;;;14.29;100.00
69836;BME280;57132;51.972;4.450;2022-09-09T04:43:13;100483.16;;;14.33;100.00
69836;BME280;57132;51.972;4.450;2022-09-09T04:45:39;100474.53;;;14.29;100.00
69836;BME280;57132;51.972;4.450;2022-09-09T04:48:06;100480.19;;;14.26;100.00
69836;BME280;57132;51.972;4.450;2022-09-09T04:50:31;100474.25;;;14.22;100.00
69836;BME280;57132;51.972;4.450;2022-09-09T04:53:00;100475.53;;;14.18;100.00
69836;BME280;57132;51.972;4.450;2022-09-09T04:55:25;100479.06;;;14.19;100.00
69836;BME280;57132;51.972;4.450;2022-09-09T04:57:51;100466.34;;;14.21;100.00
69836;BME280;57132;51.972;4.450;2022-09-09T05:00:16;100472.84;;;14.18;100.00
69836;BME280;57132;51.972;4.450;2022-09-09T05:02:42;100472.97;;;14.17;100.00
69836;BME280;57132;51.972;4.450;2022-09-09T05:05:08;100482.75;;;14.18;100.00
69836;BME280;57132;51.972;4.450;2022-09-09T05:07:33;100475.81;;;14.15;100.00
69836;BME280;57132;51.972;4.450;2022-09-09T05:09:58;100475.81;;;14.15;100.00
69836;BME280;57132;51.972;4.450;2022-09-09T05:12:24;100479.59;;;14.13;100.00
69836;BME280;57132;51.972;4.450;2022-09-09T05:14:51;100477.66;;;14.15;100.00
69836;BME280;57132;51.972;4.450;2022-09-09T05:17:16;100468.59;;;14.16;100.00
69836;BME280;57132;51.972;4.450;2022-09-09T05:19:42;100470.59;;;14.14;100.00
69836;BME280;57132;51.972;4.450;2022-09-09T05:22:08;100459.84;;;14.14;100.00
69836;BME280;57132;51.972;4.450;2022-09-09T05:24:33;100464.91;;;14.17;100.00
69836;BME280;57132;51.972;4.450;2022-09-09T05:26:59;100460.97;;;14.21;100.00
69836;BME280;57132;51.972;4.450;2022-09-09T05:29:26;100460.28;;;14.19;100.00
69836;BME280;57132;51.972;4.450;2022-09-09T05:31:52;100462.38;;;14.25;100.00
69836;BME280;57132;51.972;4.450;2022-09-09T05:34:18;100464.94;;;14.26;100.00
69836;BME280;57132;51.972;4.450;2022-09-09T05:36:43;100472.00;;;14.27;100.00
69836;BME280;57132;51.972;4.450;2022-09-09T05:39:08;100469.72;;;14.33;100.00
69836;BME280;57132;51.972;4.450;2022-09-09T05:41:34;100476.94;;;14.42;100.00
69836;BME280;57132;51.972;4.450;2022-09-09T05:44:01;100472.84;;;14.47;100.00
69836;BME280;57132;51.972;4.450;2022-09-09T05:46:26;100479.66;;;14.51;100.00
69836;BME280;57132;51.972;4.450;2022-09-09T05:48:52;100489.81;;;14.58;100.00
69836;BME280;57132;51.972;4.450;2022-09-09T05:51:26;100479.50;;;14.63;100.00
69836;BME280;57132;51.972;4.450;2022-09-09T05:53:53;100482.59;;;14.68;100.00
69836;BME280;57132;51.972;4.450;2022-09-09T05:56:22;100477.66;;;14.73;100.00
69836;BME280;57132;51.972;4.450;2022-09-09T05:58:49;100486.41;;;14.75;100.00
69836;BME280;57132;51.972;4.450;2022-09-09T06:01:17;100493.91;;;14.81;100.00
69836;BME280;57132;51.972;4.450;2022-09-09T06:03:44;100496.28;;;14.84;100.00
69836;BME280;57132;51.972;4.450;2022-09-09T06:06:12;100489.63;;;14.88;100.00
69836;BME280;57132;51.972;4.450;2022-09-09T06:08:40;100492.91;;;14.82;100.00
69836;BME280;57132;51.972;4.450;2022-09-09T06:11:09;100491.22;;;14.81;100.00
69836;BME280;57132;51.972;4.450;2022-09-09T06:13:35;100487.94;;;14.87;100.00
69836;BME280;57132;51.972;4.450;2022-09-09T06:16:03;100489.78;;;14.87;100.00
69836;BME280;57132;51.972;4.450;2022-09-09T06:18:29;100498.13;;;14.84;100.00
69836;BME280;57132;51.972;4.450;2022-09-09T06:20:59;100497.44;;;14.82;100.00
69836;BME280;57132;51.972;4.450;2022-09-09T06:23:26;100489.78;;;14.87;100.00
69836;BME280;57132;51.972;4.450;2022-09-09T06:25:59;100493.69;;;14.92;100.00
69836;BME280;57132;51.972;4.450;2022-09-09T06:28:25;100493.97;;;14.99;100.00
69836;BME280;57132;51.972;4.450;2022-09-09T06:31:03;100497.78;;;14.96;100.00
69836;BME280;57132;51.972;4.450;2022-09-09T06:33:34;100490.28;;;15.00;100.00
69836;BME280;57132;51.972;4.450;2022-09-09T06:36:01;100491.84;;;15.03;100.00
69836;BME280;57132;51.972;4.450;2022-09-09T06:38:27;100489.88;;;15.05;100.00
69836;BME280;57132;51.972;4.450;2022-09-09T06:40:57;100490.56;;;15.07;100.00
69836;BME280;57132;51.972;4.450;2022-09-09T06:43:25;100497.63;;;15.08;100.00
69836;BME280;57132;51.972;4.450;2022-09-09T06:45:59;100487.59;;;15.10;100.00
69836;BME280;57132;51.972;4.450;2022-09-09T06:48:25;100491.13;;;15.10;100.00
69836;BME280;57132;51.972;4.450;2022-09-09T06:50:59;100490.84;;;15.13;100.00
69836;BME280;57132;51.972;4.450;2022-09-09T06:53:25;100492.25;;;15.17;100.00
69836;BME280;57132;51.972;4.450;2022-09-09T06:55:52;100491.78;;;15.22;100.00
69836;BME280;57132;51.972;4.450;2022-09-09T06:58:17;100497.16;;;15.22;100.00
69836;BME280;57132;51.972;4.450;2022-09-09T07:00:43;100490.34;;;15.28;100.00
69836;BME280;57132;51.972;4.450;2022-09-09T07:03:10;100494.13;;;15.35;100.00
69836;BME280;57132;51.972;4.450;2022-09-09T07:05:35;100494.97;;;15.35;100.00
69836;BME280;57132;51.972;4.450;2022-09-09T07:08:01;100489.59;;;15.35;100.00
69836;BME280;57132;51.972;4.450;2022-09-09T07:10:27;100495.53;;;15.39;100.00
69836;BME280;57132;51.972;4.450;2022-09-09T07:12:52;100488.75;;;15.35;100.00
69836;BME280;57132;51.972;4.450;2022-09-09T07:15:18;100493.31;;;15.34;100.00
69836;BME280;57132;51.972;4.450;2022-09-09T07:17:44;100489.50;;;15.27;100.00
69836;BME280;57132;51.972;4.450;2022-09-09T07:20:09;100498.56;;;15.26;100.00
69836;BME280;57132;51.972;4.450;2022-09-09T07:22:35;100490.94;;;15.21;100.00
69836;BME280;57132;51.972;4.450;2022-09-09T07:25:00;100494.75;;;15.19;100.00
69836;BME280;57132;51.972;4.450;2022-09-09T07:27:27;100486.13;;;15.25;100.00
69836;BME280;57132;51.972;4.450;2022-09-09T07:29:52;100484.00;;;15.19;100.00
69836;BME280;57132;51.972;4.450;2022-09-09T07:32:19;100487.00;;;15.16;100.00
69836;BME280;57132;51.972;4.450;2022-09-09T07:34:45;100483.72;;;15.22;100.00
69836;BME280;57132;51.972;4.450;2022-09-09T07:37:11;100485.69;;;15.20;100.00
69836;BME280;57132;51.972;4.450;2022-09-09T07:39:39;100490.78;;;15.23;100.00
69836;BME280;57132;51.972;4.450;2022-09-09T07:42:05;100499.41;;;15.27;100.00
69836;BME280;57132;51.972;4.450;2022-09-09T07:44:31;100490.78;;;15.33;100.00
69836;BME280;57132;51.972;4.450;2022-09-09T07:47:00;100491.63;;;15.33;100.00
69836;BME280;57132;51.972;4.450;2022-09-09T07:49:25;100498.38;;;15.37;100.00
69836;BME280;57132;51.972;4.450;2022-09-09T07:51:50;100490.72;;;15.42;100.00
69836;BME280;57132;51.972;4.450;2022-09-09T07:54:17;100503.16;;;15.43;100.00
69836;BME280;57132;51.972;4.450;2022-09-09T07:56:49;100493.97;;;15.46;100.00
69836;BME280;57132;51.972;4.450;2022-09-09T07:59:14;100485.88;;;15.46;100.00
69836;BME280;57132;51.972;4.450;2022-09-09T08:01:48;100494.50;;;15.49;100.00
69836;BME280;57132;51.972;4.450;2022-09-09T08:04:15;100489.13;;;15.49;100.00
69836;BME280;57132;51.972;4.450;2022-09-09T08:06:44;100483.59;;;15.51;100.00
69836;BME280;57132;51.972;4.450;2022-09-09T08:09:11;100492.66;;;15.50;100.00
69836;BME280;57132;51.972;4.450;2022-09-09T08:11:38;100487.00;;;15.53;100.00
69836;BME280;57132;51.972;4.450;2022-09-09T08:14:04;100494.59;;;15.58;100.00
69836;BME280;57132;51.972;4.450;2022-09-09T08:16:32;100488.94;;;15.61;100.00
69836;BME280;57132;51.972;4.450;2022-09-09T08:18:58;100487.94;;;15.62;100.00
69836;BME280;57132;51.972;4.450;2022-09-09T08:21:29;100501.13;;;15.65;100.00
69836;BME280;57132;51.972;4.450;2022-09-09T08:23:56;100504.50;;;15.67;100.00
69836;BME280;57132;51.972;4.450;2022-09-09T08:26:24;100495.75;;;15.65;100.00
69836;BME280;57132;51.972;4.450;2022-09-09T08:28:51;100503.06;;;15.63;100.00
69836;BME280;57132;51.972;4.450;2022-09-09T08:31:19;100497.00;;;15.61;100.00
69836;BME280;57132;51.972;4.450;2022-09-09T08:33:45;100494.75;;;15.66;100.00
69836;BME280;57132;51.972;4.450;2022-09-09T08:36:22;100498.28;;;15.66;100.00
69836;BME280;57132;51.972;4.450;2022-09-09T08:38:53;100493.59;;;15.68;100.00
69836;BME280;57132;51.972;4.450;2022-09-09T08:44:02;100504.38;;;15.68;100.00
69836;BME280;57132;51.972;4.450;2022-09-09T08:49:38;100500.25;;;15.64;100.00
69836;BME280;57132;51.972;4.450;2022-09-09T08:52:23;100502.81;;;15.66;100.00
69836;BME280;57132;51.972;4.450;2022-09-09T08:54:51;100499.97;;;15.67;100.00
69836;BME280;57132;51.972;4.450;2022-09-09T08:57:23;100501.81;;;15.67;100.00
69836;BME280;57132;51.972;4.450;2022-09-09T08:59:54;100518.38;;;15.72;100.00
69836;BME280;57132;51.972;4.450;2022-09-09T09:02:46;100507.44;;;15.73;100.00
69836;BME280;57132;51.972;4.450;2022-09-09T09:13:01;100515.78;;;15.80;100.00
69836;BME280;57132;51.972;4.450;2022-09-09T09:15:36;100522.56;;;15.84;100.00
69836;BME280;57132;51.972;4.450;2022-09-09T09:18:03;100517.59;;;15.80;100.00
69836;BME280;57132;51.972;4.450;2022-09-09T09:21:10;100521.16;;;15.80;100.00
69836;BME280;57132;51.972;4.450;2022-09-09T09:23:54;100520.00;;;15.83;100.00
69836;BME280;57132;51.972;4.450;2022-09-09T09:26:23;100527.03;;;15.93;100.00
69836;BME280;57132;51.972;4.450;2022-09-09T09:28:54;100518.03;;;16.03;100.00
69836;BME280;57132;51.972;4.450;2022-09-09T09:31:21;100518.75;;;16.05;100.00
69836;BME280;57132;51.972;4.450;2022-09-09T09:33:53;100510.19;;;16.09;100.00
69836;BME280;57132;51.972;4.450;2022-09-09T09:36:24;100517.72;;;16.06;100.00
69836;BME280;57132;51.972;4.450;2022-09-09T09:38:54;100503.44;;;16.05;100.00
69836;BME280;57132;51.972;4.450;2022-09-09T09:41:38;100500.78;;;15.95;100.00
69836;BME280;57132;51.972;4.450;2022-09-09T09:44:06;100496.78;;;15.99;100.00
69836;BME280;57132;51.972;4.450;2022-09-09T09:46:45;100497.28;;;16.13;100.00
69836;BME280;57132;51.972;4.450;2022-09-09T09:49:10;100500.72;;;16.23;100.00
69836;BME280;57132;51.972;4.450;2022-09-09T09:51:36;100508.59;;;16.34;100.00
69836;BME280;57132;51.972;4.450;2022-09-09T09:54:26;100500.75;;;16.41;100.00
69836;BME280;57132;51.972;4.450;2022-09-09T09:56:53;100504.34;;;16.50;100.00
69836;BME280;57132;51.972;4.450;2022-09-09T10:01:53;100501.97;;;16.11;100.00
69836;BME280;57132;51.972;4.450;2022-09-09T10:04:21;100502.34;;;15.98;100.00
69836;BME280;57132;51.972;4.450;2022-09-09T10:06:49;100503.28;;;15.79;100.00
69836;BME280;57132;51.972;4.450;2022-09-09T10:09:31;100505.22;;;15.69;100.00
69836;BME280;57132;51.972;4.450;2022-09-09T10:20:24;100503.16;;;15.43;100.00
69836;BME280;57132;51.972;4.450;2022-09-09T10:23:08;100507.69;;;15.43;100.00
69836;BME280;57132;51.972;4.450;2022-09-09T10:31:31;100506.53;;;15.83;100.00
69836;BME280;57132;51.972;4.450;2022-09-09T10:34:17;100506.94;;;15.88;100.00
69836;BME280;57132;51.972;4.450;2022-09-09T10:36:47;100509.88;;;15.94;100.00
69836;BME280;57132;51.972;4.450;2022-09-09T10:39:34;100503.47;;;15.95;100.00
69836;BME280;57132;51.972;4.450;2022-09-09T10:42:09;100512.44;;;15.96;100.00
69836;BME280;57132;51.972;4.450;2022-09-09T10:52:58;100507.97;;;16.22;100.00
69836;BME280;57132;51.972;4.450;2022-09-09T10:55:35;100506.13;;;16.41;100.00
69836;BME280;57132;51.972;4.450;2022-09-09T10:58:03;100511.91;;;16.64;100.00
69836;BME280;57132;51.972;4.450;2022-09-09T11:00:44;100498.13;;;16.67;100.00
69836;BME280;57132;51.972;4.450;2022-09-09T11:03:19;100509.03;;;16.83;100.00
69836;BME280;57132;51.972;4.450;2022-09-09T11:05:59;100497.34;;;17.01;100.00
69836;BME280;57132;51.972;4.450;2022-09-09T11:08:28;100492.34;;;17.40;100.00
69836;BME280;57132;51.972;4.450;2022-09-09T11:11:13;100492.03;;;17.77;100.00
69836;BME280;57132;51.972;4.450;2022-09-09T11:13:47;100492.13;;;18.18;100.00
69836;BME280;57132;51.972;4.450;2022-09-09T11:19:33;100492.31;;;18.33;97.11
69836;BME280;57132;51.972;4.450;2022-09-09T11:22:01;100501.94;;;18.19;95.36
69836;BME280;57132;51.972;4.450;2022-09-09T11:24:43;100500.25;;;18.18;98.24
69836;BME280;57132;51.972;4.450;2022-09-09T11:29:44;100507.59;;;17.83;98.00
69836;BME280;57132;51.972;4.450;2022-09-09T11:35:33;100491.31;;;17.33;99.07
69836;BME280;57132;51.972;4.450;2022-09-09T11:40:45;100494.91;;;16.89;100.00
69836;BME280;57132;51.972;4.450;2022-09-09T11:43:23;100508.97;;;16.57;100.00
69836;BME280;57132;51.972;4.450;2022-09-09T11:45:53;100528.00;;;16.20;100.00
69836;BME280;57132;51.972;4.450;2022-09-09T11:48:28;100519.69;;;15.86;100.00
69836;BME280;57132;51.972;4.450;2022-09-09T11:51:08;100521.78;;;15.64;100.00
69836;BME280;57132;51.972;4.450;2022-09-09T11:53:36;100517.03;;;15.48;100.00
69836;BME280;57132;51.972;4.450;2022-09-09T11:56:13;100517.91;;;15.39;100.00
69836;BME280;57132;51.972;4.450;2022-09-09T11:59:03;100530.94;;;15.34;100.00
69836;BME280;57132;51.972;4.450;2022-09-09T12:01:44;100517.22;;;15.37;100.00
69836;BME280;57132;51.972;4.450;2022-09-09T12:04:12;100514.38;;;15.39;100.00
69836;BME280;57132;51.972;4.450;2022-09-09T12:06:54;100518.31;;;15.44;100.00
69836;BME280;57132;51.972;4.450;2022-09-09T12:09:30;100511.66;;;15.48;100.00
69836;BME280;57132;51.972;4.450;2022-09-09T12:17:27;100518.09;;;15.56;100.00
69836;BME280;57132;51.972;4.450;2022-09-09T12:22:51;100524.50;;;15.55;100.00
69836;BME280;57132;51.972;4.450;2022-09-09T12:25:35;100535.13;;;15.56;100.00
69836;BME280;57132;51.972;4.450;2022-09-09T12:28:10;100519.13;;;15.55;100.00
69836;BME280;57132;51.972;4.450;2022-09-09T12:30:52;100526.59;;;15.61;100.00
69836;BME280;57132;51.972;4.450;2022-09-09T12:33:20;100531.28;;;15.59;100.00
69836;BME280;57132;51.972;4.450;2022-09-09T12:35:54;100537.19;;;15.62;100.00
69836;BME280;57132;51.972;4.450;2022-09-09T12:38:22;100531.28;;;15.68;100.00
69836;BME280;57132;51.972;4.450;2022-09-09T12:40:56;100529.97;;;15.72;100.00
69836;BME280;57132;51.972;4.450;2022-09-09T12:43:24;100532.50;;;15.74;100.00
69836;BME280;57132;51.972;4.450;2022-09-09T12:45:54;100528.69;;;15.77;100.00
69836;BME280;57132;51.972;4.450;2022-09-09T12:48:28;100527.50;;;15.79;100.00
69836;BME280;57132;51.972;4.450;2022-09-09T12:50:55;100524.25;;;15.85;100.00
69836;BME280;57132;51.972;4.450;2022-09-09T12:53:35;100521.09;;;15.90;100.00
69836;BME280;57132;51.972;4.450;2022-09-09T12:56:04;100537.25;;;15.90;100.00
69836;BME280;57132;51.972;4.450;2022-09-09T12:58:32;100534.63;;;15.98;100.00
69836;BME280;57132;51.972;4.450;2022-09-09T13:00:59;100537.81;;;16.11;100.00
69836;BME280;57132;51.972;4.450;2022-09-09T13:03:26;100535.06;;;16.21;100.00
69836;BME280;57132;51.972;4.450;2022-09-09T13:05:53;100531.06;;;16.25;100.00
69836;BME280;57132;51.972;4.450;2022-09-09T13:08:19;100537.44;;;16.42;100.00
69836;BME280;57132;51.972;4.450;2022-09-09T13:10:54;100528.66;;;16.58;100.00
69836;BME280;57132;51.972;4.450;2022-09-09T13:13:26;100529.97;;;16.71;100.00
69836;BME280;57132;51.972;4.450;2022-09-09T13:16:30;100530.81;;;16.90;100.00
69836;BME280;57132;51.972;4.450;2022-09-09T13:19:00;100549.75;;;16.98;100.00
69836;BME280;57132;51.972;4.450;2022-09-09T13:21:59;100548.53;;;16.92;100.00
69836;BME280;57132;51.972;4.450;2022-09-09T13:24:31;100562.69;;;16.94;100.00
69836;BME280;57132;51.972;4.450;2022-09-09T13:26:59;100551.84;;;16.86;100.00
69836;BME280;57132;51.972;4.450;2022-09-09T13:29:27;100545.41;;;16.79;100.00
69836;BME280;57132;51.972;4.450;2022-09-09T13:31:53;100539.00;;;16.80;100.00
69836;BME280;57132;51.972;4.450;2022-09-09T13:34:30;100543.09;;;16.84;100.00
69836;BME280;57132;51.972;4.450;2022-09-09T13:37:00;100552.19;;;16.83;100.00
69836;BME280;57132;51.972;4.450;2022-09-09T13:39:32;100563.41;;;16.79;100.00
69836;BME280;57132;51.972;4.450;2022-09-09T13:41:59;100563.09;;;16.64;100.00
69836;BME280;57132;51.972;4.450;2022-09-09T13:44:30;100569.09;;;16.40;100.00
69836;BME280;57132;51.972;4.450;2022-09-09T13:49:30;100566.50;;;16.03;100.00
69836;BME280;57132;51.972;4.450;2022-09-09T13:52:12;100558.38;;;15.85;100.00
69836;BME280;57132;51.972;4.450;2022-09-09T13:54:39;100564.97;;;15.72;100.00
69836;BME280;57132;51.972;4.450;2022-09-09T13:57:05;100546.72;;;15.66;100.00
69836;BME280;57132;51.972;4.450;2022-09-09T13:59:30;100540.06;;;15.61;100.00
69836;BME280;57132;51.972;4.450;2022-09-09T14:01:56;100533.28;;;15.57;100.00
69836;BME280;57132;51.972;4.450;2022-09-09T14:04:22;100539.63;;;15.56;100.00
69836;BME280;57132;51.972;4.450;2022-09-09T14:06:48;100536.72;;;15.49;100.00
69836;BME280;57132;51.972;4.450;2022-09-09T14:09:15;100538.56;;;15.48;100.00
69836;BME280;57132;51.972;4.450;2022-09-09T14:11:42;100533.31;;;15.47;100.00
69836;BME280;57132;51.972;4.450;2022-09-09T14:14:08;100541.09;;;15.50;100.00
69836;BME280;57132;51.972;4.450;2022-09-09T14:16:33;100529.59;;;15.58;100.00
69836;BME280;57132;51.972;4.450;2022-09-09T14:18:59;100534.94;;;15.67;100.00
69836;BME280;57132;51.972;4.450;2022-09-09T14:21:25;100531.22;;;15.78;100.00